Time;durP1;ratioP1;P1;durP2;ratioP2;P2;SDS_P1;SDS_P2;PMS_P1;PMS_P2;Temp;Humidity;BMP_temperature;BMP_pressure;BME280_temperature;BME280_humidity;BME280_pressure;Samples;Min_cycle;Max_cycle;Signal;HPM_P1;HPM_P2
2021/10/24 00:02:17;;;;;;;13.60;7.40;;;;;;;;;;6210947;23;20164;-77
2021/10/24 00:04:42;;;;;;;8.83;6.70;;;;;;;;;;6212192;23;20489;-77
2021/10/24 00:07:07;;;;;;;9.90;6.90;;;;;;;;;;6184877;23;20246;-78
2021/10/24 00:09:32;;;;;;;12.60;6.53;;;;;;;;;;6211240;23;20209;-77
2021/10/24 00:11:58;;;;;;;10.73;6.77;;;;;;;;;;6212354;23;20155;-78
2021/10/24 00:14:23;;;;;;;16.13;7.03;;;;;;;;;;6211902;23;20144;-78
2021/10/24 00:16:48;;;;;;;14.53;6.90;;;;;;;;;;6212460;23;20594;-78
2021/10/24 00:19:13;;;;;;;15.30;8.13;;;;;;;;;;6212368;23;20557;-78
2021/10/24 00:21:39;;;;;;;12.70;6.87;;;;;;;;;;6212203;23;20168;-77
2021/10/24 00:24:04;;;;;;;14.90;8.37;;;;;;;;;;6211540;23;20166;-78
2021/10/24 00:26:29;;;;;;;10.70;7.43;;;;;;;;;;6211612;23;20595;-78
2021/10/24 00:28:55;;;;;;;16.30;8.40;;;;;;;;;;6211726;23;20206;-77
2021/10/24 00:31:20;;;;;;;13.27;7.40;;;;;;;;;;6212663;23;20150;-77
2021/10/24 00:33:45;;;;;;;15.70;8.47;;;;;;;;;;6212408;23;20144;-77
2021/10/24 00:36:11;;;;;;;12.83;8.10;;;;;;;;;;6186957;23;20632;-78
2021/10/24 00:38:36;;;;;;;12.50;7.60;;;;;;;;;;6213943;23;20222;-77
2021/10/24 00:41:01;;;;;;;11.33;8.40;;;;;;;;;;6213733;23;20171;-78
2021/10/24 00:43:27;;;;;;;17.63;8.20;;;;;;;;;;6213857;23;20595;-76
2021/10/24 00:45:52;;;;;;;12.50;7.60;;;;;;;;;;6214074;23;20144;-77
2021/10/24 00:48:17;;;;;;;15.30;8.73;;;;;;;;;;6214357;23;20164;-77
2021/10/24 00:50:42;;;;;;;14.27;9.13;;;;;;;;;;6213747;23;20151;-78
2021/10/24 00:53:08;;;;;;;14.73;8.80;;;;;;;;;;6213817;23;20139;-77
2021/10/24 00:55:34;;;;;;;17.87;9.23;;;;;;;;;;6214357;23;20628;-77
2021/10/24 00:58:00;;;;;;;14.37;9.27;;;;;;;;;;6213254;23;20813;-76
2021/10/24 01:00:25;;;;;;;11.87;8.57;;;;;;;;;;6213215;23;20144;-77
2021/10/24 01:02:51;;;;;;;15.93;9.97;;;;;;;;;;6212789;23;20774;-76
2021/10/24 01:05:16;;;;;;;14.53;9.63;;;;;;;;;;6213264;23;20148;-77
2021/10/24 01:07:43;;;;;;;17.70;9.93;;;;;;;;;;6213370;23;20183;-77
2021/10/24 01:10:14;;;;;;;18.60;9.83;;;;;;;;;;6213554;23;20219;-77
2021/10/24 01:12:39;;;;;;;17.50;11.57;;;;;;;;;;6187321;23;20398;-77
2021/10/24 01:15:05;;;;;;;17.97;11.50;;;;;;;;;;6213428;23;20371;-77
2021/10/24 01:17:31;;;;;;;15.90;10.10;;;;;;;;;;6213720;23;20144;-76
2021/10/24 01:19:57;;;;;;;14.83;10.00;;;;;;;;;;6213573;23;20159;-77
2021/10/24 01:22:22;;;;;;;19.03;10.03;;;;;;;;;;6187018;23;20406;-77
2021/10/24 01:24:47;;;;;;;17.33;11.10;;;;;;;;;;6213778;23;20144;-76
2021/10/24 01:27:12;;;;;;;20.43;10.73;;;;;;;;;;6212600;23;20534;-77
2021/10/24 01:29:38;;;;;;;20.00;12.43;;;;;;;;;;6212608;23;20160;-77
2021/10/24 01:32:04;;;;;;;19.47;11.73;;;;;;;;;;6213574;23;20182;-77
2021/10/24 01:34:29;;;;;;;15.30;10.83;;;;;;;;;;6213411;23;20144;-76
2021/10/24 01:36:54;;;;;;;22.27;12.83;;;;;;;;;;6212573;23;20382;-78
2021/10/24 01:39:20;;;;;;;23.70;11.70;;;;;;;;;;6212771;23;20246;-77
2021/10/24 01:41:45;;;;;;;18.10;11.13;;;;;;;;;;6186746;23;20176;-77
2021/10/24 01:44:10;;;;;;;21.40;12.00;;;;;;;;;;6214333;23;20154;-78
2021/10/24 01:46:36;;;;;;;16.90;10.23;;;;;;;;;;6213831;23;20480;-78
2021/10/24 01:49:01;;;;;;;18.70;11.40;;;;;;;;;;6213635;23;20214;-78
2021/10/24 01:51:26;;;;;;;14.90;11.00;;;;;;;;;;6213399;23;20171;-78
2021/10/24 01:53:51;;;;;;;21.47;11.00;;;;;;;;;;6213355;23;20154;-78
2021/10/24 01:56:17;;;;;;;19.77;10.70;;;;;;;;;;6212963;23;20595;-78
2021/10/24 01:58:43;;;;;;;17.33;9.97;;;;;;;;;;6214026;23;20167;-78
2021/10/24 02:01:08;;;;;;;22.43;10.70;;;;;;;;;;6212850;23;20634;-78
2021/10/24 02:03:35;;;;;;;26.80;11.47;;;;;;;;;;6212580;23;20524;-78
2021/10/24 02:06:01;;;;;;;15.70;11.57;;;;;;;;;;6212584;23;20140;-78
2021/10/24 02:08:26;;;;;;;16.03;10.07;;;;;;;;;;6213470;23;20457;-77
2021/10/24 02:10:51;;;;;;;16.43;11.70;;;;;;;;;;6213601;23;20148;-78
2021/10/24 02:13:17;;;;;;;16.33;9.87;;;;;;;;;;6213514;23;20144;-77
2021/10/24 02:15:42;;;;;;;20.63;10.53;;;;;;;;;;6213429;23;20151;-77
2021/10/24 02:18:08;;;;;;;17.17;9.93;;;;;;;;;;6212975;23;20239;-77
2021/10/24 02:20:34;;;;;;;17.67;11.73;;;;;;;;;;6213351;23;20594;-78
2021/10/24 02:23:00;;;;;;;15.50;10.27;;;;;;;;;;6212428;23;20363;-78
2021/10/24 02:25:26;;;;;;;16.43;10.27;;;;;;;;;;6213428;23;20202;-78
2021/10/24 02:27:51;;;;;;;21.03;10.33;;;;;;;;;;6212465;23;20399;-77
2021/10/24 02:30:16;;;;;;;13.23;9.47;;;;;;;;;;6213036;23;20148;-77
2021/10/24 02:32:42;;;;;;;22.67;9.70;;;;;;;;;;6213028;23;20249;-77
2021/10/24 02:35:09;;;;;;;17.37;10.13;;;;;;;;;;6211523;23;20150;-78
2021/10/24 02:37:34;;;;;;;15.20;9.40;;;;;;;;;;6183918;23;20383;-77
2021/10/24 02:39:59;;;;;;;20.50;9.80;;;;;;;;;;6212765;23;20429;-77
2021/10/24 02:42:24;;;;;;;12.97;8.00;;;;;;;;;;6212335;23;20172;-77
2021/10/24 02:44:50;;;;;;;17.00;9.37;;;;;;;;;;6212876;23;20176;-77
2021/10/24 02:47:17;;;;;;;15.80;9.27;;;;;;;;;;6212429;23;20587;-77
2021/10/24 02:49:42;;;;;;;14.90;8.50;;;;;;;;;;6212127;23;20170;-77
2021/10/24 02:52:07;;;;;;;12.83;8.60;;;;;;;;;;6212754;23;20363;-78
2021/10/24 02:54:33;;;;;;;13.57;8.07;;;;;;;;;;6213181;23;20144;-78
2021/10/24 02:57:00;;;;;;;12.87;8.27;;;;;;;;;;6212916;23;20231;-77
2021/10/24 02:59:25;;;;;;;8.80;6.30;;;;;;;;;;6211649;23;20167;-76
2021/10/24 03:01:50;;;;;;;14.23;7.13;;;;;;;;;;6211042;23;20421;-77
2021/10/24 03:04:15;;;;;;;11.93;6.87;;;;;;;;;;6211666;23;20140;-77
2021/10/24 03:06:42;;;;;;;11.60;6.60;;;;;;;;;;6212430;23;20152;-77
2021/10/24 03:09:07;;;;;;;11.90;6.37;;;;;;;;;;6185777;23;20183;-77
2021/10/24 03:11:32;;;;;;;13.30;6.50;;;;;;;;;;6212539;23;20378;-77
2021/10/24 03:13:58;;;;;;;9.93;7.13;;;;;;;;;;6211723;23;20175;-76
2021/10/24 03:16:23;;;;;;;11.70;7.00;;;;;;;;;;6210780;23;20481;-77
2021/10/24 03:18:48;;;;;;;11.10;6.83;;;;;;;;;;6212561;23;20167;-78
2021/10/24 03:21:13;;;;;;;10.93;7.27;;;;;;;;;;6212251;23;20163;-77
2021/10/24 03:23:39;;;;;;;9.93;7.30;;;;;;;;;;6211709;23;20148;-78
2021/10/24 03:26:04;;;;;;;13.80;7.20;;;;;;;;;;6212087;23;20171;-77
2021/10/24 03:28:34;;;;;;;10.87;7.07;;;;;;;;;;6212239;23;20614;-78
2021/10/24 03:31:02;;;;;;;13.03;8.30;;;;;;;;;;6212955;23;20147;-77
2021/10/24 03:33:27;;;;;;;14.20;8.13;;;;;;;;;;6212789;23;20387;-77
2021/10/24 03:35:52;;;;;;;14.60;7.50;;;;;;;;;;6211820;23;20433;-78
2021/10/24 03:38:18;;;;;;;17.23;7.10;;;;;;;;;;6211704;23;20238;-77
2021/10/24 03:40:43;;;;;;;10.40;7.23;;;;;;;;;;6211875;23;20167;-78
2021/10/24 03:43:08;;;;;;;9.70;6.87;;;;;;;;;;6212463;23;20226;-78
2021/10/24 03:45:33;;;;;;;13.60;6.73;;;;;;;;;;6211676;23;20140;-78
2021/10/24 03:47:59;;;;;;;10.33;6.83;;;;;;;;;;6212183;23;20171;-78
2021/10/24 03:50:24;;;;;;;11.17;7.20;;;;;;;;;;6212640;23;20187;-78
2021/10/24 03:52:49;;;;;;;9.27;6.67;;;;;;;;;;6212891;23;20155;-78
2021/10/24 03:55:14;;;;;;;8.23;6.20;;;;;;;;;;6212623;23;20499;-78
2021/10/24 03:57:40;;;;;;;9.50;6.90;;;;;;;;;;6213285;23;20510;-77
2021/10/24 04:00:06;;;;;;;12.37;6.70;;;;;;;;;;6212854;23;20150;-77
2021/10/24 04:02:32;;;;;;;9.03;6.57;;;;;;;;;;6184374;23;20176;-77
2021/10/24 04:04:58;;;;;;;7.93;5.93;;;;;;;;;;6211349;23;20438;-77
2021/10/24 04:07:23;;;;;;;10.53;6.20;;;;;;;;;;6212424;23;20399;-77
2021/10/24 04:09:48;;;;;;;9.03;6.30;;;;;;;;;;6212090;23;20156;-79
2021/10/24 04:12:13;;;;;;;8.20;6.10;;;;;;;;;;6212026;23;20148;-77
2021/10/24 04:14:39;;;;;;;10.53;6.57;;;;;;;;;;6212062;23;20227;-77
2021/10/24 04:17:04;;;;;;;8.73;6.03;;;;;;;;;;6211671;23;20595;-78
2021/10/24 04:19:29;;;;;;;6.77;5.47;;;;;;;;;;6212853;23;20233;-78
2021/10/24 04:21:55;;;;;;;10.80;7.00;;;;;;;;;;6212078;23;20646;-77
2021/10/24 04:24:20;;;;;;;12.17;6.50;;;;;;;;;;6211134;23;20553;-78
2021/10/24 04:26:45;;;;;;;9.30;6.00;;;;;;;;;;6212261;23;20160;-78
2021/10/24 04:29:11;;;;;;;9.40;5.53;;;;;;;;;;6211734;23;20259;-77
2021/10/24 04:31:36;;;;;;;14.10;7.07;;;;;;;;;;6212257;23;20155;-77
2021/10/24 04:34:02;;;;;;;10.23;6.40;;;;;;;;;;6210064;23;20151;-78
2021/10/24 04:36:28;;;;;;;13.77;6.47;;;;;;;;;;6211664;23;20147;-78
2021/10/24 04:38:53;;;;;;;9.57;6.13;;;;;;;;;;6211741;23;20422;-78
2021/10/24 04:41:18;;;;;;;10.60;6.40;;;;;;;;;;6212173;23;20171;-78
2021/10/24 04:43:43;;;;;;;8.43;6.27;;;;;;;;;;6212008;23;20166;-77
2021/10/24 04:46:08;;;;;;;11.27;6.53;;;;;;;;;;6210517;23;20151;-78
2021/10/24 04:48:34;;;;;;;13.70;6.00;;;;;;;;;;6211010;23;20247;-77
2021/10/24 04:50:59;;;;;;;9.80;6.70;;;;;;;;;;6211800;23;20145;-78
2021/10/24 04:53:25;;;;;;;9.83;6.47;;;;;;;;;;6211110;23;20148;-77
2021/10/24 04:55:51;;;;;;;9.20;6.50;;;;;;;;;;6211364;23;20140;-77
2021/10/24 04:58:16;;;;;;;11.83;6.70;;;;;;;;;;6211864;23;20481;-77
2021/10/24 05:00:41;;;;;;;13.53;6.47;;;;;;;;;;6210818;23;20206;-78
2021/10/24 05:03:07;;;;;;;8.00;6.03;;;;;;;;;;6211411;23;20226;-78
2021/10/24 05:05:32;;;;;;;9.23;6.30;;;;;;;;;;6210878;23;20168;-77
2021/10/24 05:07:57;;;;;;;9.83;6.27;;;;;;;;;;6211632;23;20199;-78
2021/10/24 05:10:23;;;;;;;10.90;5.83;;;;;;;;;;6210329;23;20137;-77
2021/10/24 05:12:48;;;;;;;14.97;6.83;;;;;;;;;;6211538;23;20151;-77
2021/10/24 05:15:13;;;;;;;10.30;6.60;;;;;;;;;;6209424;23;20152;-78
2021/10/24 05:17:38;;;;;;;8.97;6.50;;;;;;;;;;6211304;23;20151;-76
2021/10/24 05:20:05;;;;;;;9.37;6.70;;;;;;;;;;6211625;23;20599;-78
2021/10/24 05:22:30;;;;;;;9.50;7.27;;;;;;;;;;6213668;23;20172;-77
2021/10/24 05:24:55;;;;;;;8.07;6.00;;;;;;;;;;6212136;23;20367;-77
2021/10/24 05:27:21;;;;;;;12.13;6.90;;;;;;;;;;6213161;23;20148;-77
2021/10/24 05:29:47;;;;;;;9.67;7.40;;;;;;;;;;6213715;23;20494;-76
2021/10/24 05:32:12;;;;;;;12.17;7.93;;;;;;;;;;6212473;23;20478;-78
2021/10/24 05:34:37;;;;;;;11.57;7.10;;;;;;;;;;6212580;23;20144;-77
2021/10/24 05:37:02;;;;;;;9.50;7.20;;;;;;;;;;6211938;23;20152;-77
2021/10/24 05:39:28;;;;;;;8.60;7.40;;;;;;;;;;6212900;23;20168;-77
2021/10/24 05:41:53;;;;;;;9.93;7.50;;;;;;;;;;6213098;23;20691;-78
2021/10/24 05:44:21;;;;;;;9.37;7.40;;;;;;;;;;6212822;23;20167;-76
2021/10/24 05:46:46;;;;;;;10.20;7.47;;;;;;;;;;6212046;23;20155;-76
2021/10/24 05:49:12;;;;;;;10.77;7.90;;;;;;;;;;6212835;23;20386;-77
2021/10/24 05:51:38;;;;;;;9.07;6.93;;;;;;;;;;6213831;23;20148;-77
2021/10/24 05:54:03;;;;;;;8.93;7.13;;;;;;;;;;6212736;23;20151;-76
2021/10/24 05:56:28;;;;;;;11.33;8.10;;;;;;;;;;6212976;23;20155;-77
2021/10/24 05:58:53;;;;;;;11.90;7.83;;;;;;;;;;6213792;23;20168;-77
2021/10/24 06:01:19;;;;;;;12.43;8.43;;;;;;;;;;6212929;23;20168;-78
2021/10/24 06:03:44;;;;;;;11.50;7.87;;;;;;;;;;6213389;23;20224;-77
2021/10/24 06:06:09;;;;;;;12.40;8.80;;;;;;;;;;6213345;23;20481;-77
2021/10/24 06:08:36;;;;;;;13.17;9.17;;;;;;;;;;6211975;23;20191;-77
2021/10/24 06:11:17;;;;;;;14.73;8.90;;;;;;;;;;6212678;23;20159;-77
2021/10/24 06:13:43;;;;;;;11.33;8.03;;;;;;;;;;6212277;23;20355;-77
2021/10/24 06:16:08;;;;;;;13.33;8.63;;;;;;;;;;6212740;23;20381;-77
2021/10/24 06:18:34;;;;;;;12.53;8.30;;;;;;;;;;6212731;23;20462;-77
2021/10/24 06:20:59;;;;;;;12.10;9.20;;;;;;;;;;6212475;23;20168;-77
2021/10/24 06:23:24;;;;;;;14.70;8.90;;;;;;;;;;6212867;23;20140;-77
2021/10/24 06:25:50;;;;;;;17.00;10.57;;;;;;;;;;6212699;23;20239;-77
2021/10/24 06:28:15;;;;;;;13.47;8.10;;;;;;;;;;6212780;23;20191;-77
2021/10/24 06:30:40;;;;;;;13.70;8.83;;;;;;;;;;6212757;23;20140;-77
2021/10/24 06:33:06;;;;;;;14.10;8.87;;;;;;;;;;6212169;23;20180;-77
2021/10/24 06:35:31;;;;;;;14.90;8.53;;;;;;;;;;6211681;23;20231;-77
2021/10/24 06:37:56;;;;;;;12.97;8.40;;;;;;;;;;6212388;23;20160;-76
2021/10/24 06:40:21;;;;;;;13.23;8.43;;;;;;;;;;6211103;23;20152;-77
2021/10/24 06:42:47;;;;;;;12.80;8.73;;;;;;;;;;6211878;23;20164;-78
2021/10/24 06:45:12;;;;;;;14.33;8.40;;;;;;;;;;6212325;23;20144;-77
2021/10/24 06:47:38;;;;;;;16.83;9.47;;;;;;;;;;6184581;23;20159;-77
2021/10/24 06:50:08;;;;;;;15.33;8.10;;;;;;;;;;6184973;23;20151;-78
2021/10/24 06:52:33;;;;;;;12.10;8.40;;;;;;;;;;6212032;23;20373;-78
2021/10/24 06:54:58;;;;;;;12.87;8.17;;;;;;;;;;6211774;23;20454;-77
2021/10/24 06:57:24;;;;;;;10.80;8.50;;;;;;;;;;6211834;23;20655;-77
2021/10/24 06:59:49;;;;;;;12.60;8.90;;;;;;;;;;6210435;23;20151;-78
2021/10/24 07:02:15;;;;;;;17.60;8.50;;;;;;;;;;6211056;23;20170;-77
2021/10/24 07:04:40;;;;;;;10.83;8.30;;;;;;;;;;6211216;23;20151;-78
2021/10/24 07:07:06;;;;;;;10.40;7.80;;;;;;;;;;6212862;23;20363;-78
2021/10/24 07:09:31;;;;;;;12.27;8.80;;;;;;;;;;6213790;23;20465;-78
2021/10/24 07:11:57;;;;;;;10.13;8.13;;;;;;;;;;6209554;23;20151;-77
2021/10/24 07:14:22;;;;;;;13.90;8.20;;;;;;;;;;6210880;23;20152;-77
2021/10/24 07:16:47;;;;;;;14.50;8.63;;;;;;;;;;6209536;23;20148;-77
2021/10/24 07:19:12;;;;;;;12.00;9.27;;;;;;;;;;6210873;23;20195;-78
2021/10/24 07:21:37;;;;;;;9.87;8.30;;;;;;;;;;6211778;23;20160;-78
2021/10/24 07:24:03;;;;;;;10.37;8.47;;;;;;;;;;6209776;23;20198;-76
2021/10/24 07:26:28;;;;;;;12.73;8.53;;;;;;;;;;6212087;23;20144;-77
2021/10/24 07:28:54;;;;;;;14.30;8.83;;;;;;;;;;6210694;23;20159;-76
2021/10/24 07:31:19;;;;;;;12.00;8.87;;;;;;;;;;6211291;23;20148;-75
2021/10/24 07:33:44;;;;;;;11.87;8.40;;;;;;;;;;6209522;23;20775;-77
2021/10/24 07:36:09;;;;;;;13.00;9.20;;;;;;;;;;6211723;23;20156;-77
2021/10/24 07:38:35;;;;;;;15.53;8.87;;;;;;;;;;6210281;23;20190;-78
2021/10/24 07:41:00;;;;;;;11.20;8.80;;;;;;;;;;6212122;23;20168;-76
2021/10/24 07:43:26;;;;;;;13.77;8.43;;;;;;;;;;6211408;23;20148;-77
2021/10/24 07:45:52;;;;;;;15.97;10.17;;;;;;;;;;6211739;23;20243;-76
2021/10/24 07:48:17;;;;;;;12.17;9.00;;;;;;;;;;6209625;23;20903;-76
2021/10/24 07:50:43;;;;;;;13.03;8.60;;;;;;;;;;6210350;23;20136;-75
2021/10/24 07:53:08;;;;;;;12.00;8.23;;;;;;;;;;6210136;23;20148;-76
2021/10/24 07:55:34;;;;;;;12.77;8.50;;;;;;;;;;6210751;23;20140;-77
2021/10/24 07:58:00;;;;;;;14.00;8.83;;;;;;;;;;6212260;23;20163;-80
2021/10/24 08:00:25;;;;;;;12.73;8.67;;;;;;;;;;6209941;23;20370;-77
2021/10/24 08:02:51;;;;;;;14.00;9.63;;;;;;;;;;6209746;23;20194;-77
2021/10/24 08:05:17;;;;;;;11.87;9.23;;;;;;;;;;6210817;23;20151;-78
2021/10/24 08:07:43;;;;;;;14.83;9.20;;;;;;;;;;6210919;23;20379;-77
2021/10/24 08:10:09;;;;;;;13.10;8.63;;;;;;;;;;6207896;23;20484;-78
2021/10/24 08:12:38;;;;;;;10.93;7.77;;;;;;;;;;6209864;23;20401;-77
2021/10/24 08:15:03;;;;;;;14.50;9.13;;;;;;;;;;6211555;23;20371;-78
2021/10/24 08:17:30;;;;;;;14.83;9.80;;;;;;;;;;6212982;23;20403;-78
2021/10/24 08:19:57;;;;;;;11.90;8.33;;;;;;;;;;6211272;23;20367;-78
2021/10/24 08:22:23;;;;;;;12.13;7.50;;;;;;;;;;6212177;23;20185;-78
2021/10/24 08:24:49;;;;;;;14.53;8.67;;;;;;;;;;6209140;23;20449;-79
2021/10/24 08:27:14;;;;;;;16.77;9.07;;;;;;;;;;6211256;23;20359;-79
2021/10/24 08:29:40;;;;;;;10.87;8.50;;;;;;;;;;6212497;23;20174;-78
2021/10/24 08:32:09;;;;;;;12.27;8.20;;;;;;;;;;6213042;23;20148;-78
2021/10/24 08:34:35;;;;;;;9.20;8.07;;;;;;;;;;6210745;23;20401;-78
2021/10/24 08:37:00;;;;;;;13.60;8.53;;;;;;;;;;6212679;23;20716;-78
2021/10/24 08:39:25;;;;;;;9.97;7.67;;;;;;;;;;6211149;23;20172;-78
2021/10/24 08:41:51;;;;;;;11.13;8.03;;;;;;;;;;6211668;23;20183;-78
2021/10/24 08:44:16;;;;;;;10.93;7.97;;;;;;;;;;6210226;23;20193;-79
2021/10/24 08:46:42;;;;;;;11.00;7.63;;;;;;;;;;6209235;23;20148;-78
2021/10/24 08:49:09;;;;;;;10.20;7.77;;;;;;;;;;6211801;23;20160;-78
2021/10/24 08:51:34;;;;;;;11.90;7.87;;;;;;;;;;6211683;23;20148;-79
2021/10/24 08:53:59;;;;;;;8.73;7.30;;;;;;;;;;6211776;23;21022;-79
2021/10/24 08:56:26;;;;;;;13.30;8.40;;;;;;;;;;6212646;23;20154;-79
2021/10/24 08:58:52;;;;;;;9.30;7.23;;;;;;;;;;6211875;23;20175;-78
2021/10/24 09:01:18;;;;;;;8.20;7.23;;;;;;;;;;6213393;23;20911;-78
2021/10/24 09:04:02;;;;;;;11.50;7.97;;;;;;;;;;6213660;23;20227;-78
2021/10/24 09:06:46;;;;;;;12.40;6.90;;;;;;;;;;6184675;23;21052;-78
2021/10/24 09:09:15;;;;;;;10.70;7.53;;;;;;;;;;6212683;23;20398;-79
2021/10/24 09:11:59;;;;;;;13.27;7.30;;;;;;;;;;6213673;23;21254;-78
2021/10/24 09:14:37;;;;;;;7.40;6.30;;;;;;;;;;6212416;23;20440;-79
2021/10/24 09:17:02;;;;;;;10.13;7.47;;;;;;;;;;6215180;23;20375;-79
2021/10/24 09:19:32;;;;;;;12.47;7.03;;;;;;;;;;6212636;23;20396;-79
2021/10/24 09:22:10;;;;;;;12.00;7.20;;;;;;;;;;6185204;23;20640;-78
2021/10/24 09:24:35;;;;;;;11.63;7.80;;;;;;;;;;6213514;23;20355;-78
2021/10/24 09:27:00;;;;;;;13.93;7.80;;;;;;;;;;6214393;23;20776;-78
2021/10/24 09:29:26;;;;;;;10.83;8.07;;;;;;;;;;6213322;23;20168;-78
2021/10/24 09:31:51;;;;;;;13.90;7.13;;;;;;;;;;6189059;23;20243;-78
2021/10/24 09:34:21;;;;;;;13.63;7.80;;;;;;;;;;6187217;23;20167;-79
2021/10/24 09:37:00;;;;;;;10.10;6.60;;;;;;;;;;6186023;23;20242;-79
2021/10/24 09:39:28;;;;;;;9.80;6.90;;;;;;;;;;6210410;22;20460;-78
2021/10/24 09:42:29;;;;;;;12.07;6.50;;;;;;;;;;6212747;23;21049;-79
2021/10/24 09:45:07;;;;;;;11.43;7.50;;;;;;;;;;6035820;23;20796;-77
2021/10/24 09:47:32;;;;;;;11.57;8.30;;;;;;;;;;6165887;23;20441;-77
2021/10/24 09:49:57;;;;;;;11.90;7.27;;;;;;;;;;6183424;23;20827;-77
2021/10/24 09:52:24;;;;;;;11.47;7.60;;;;;;;;;;6152790;23;20153;-77
2021/10/24 09:54:49;;;;;;;10.83;7.27;;;;;;;;;;6156522;23;20168;-77
2021/10/24 09:57:14;;;;;;;10.63;7.30;;;;;;;;;;6155510;23;20383;-78
2021/10/24 09:59:39;;;;;;;12.27;7.60;;;;;;;;;;6181296;23;20255;-78
2021/10/24 10:02:05;;;;;;;11.60;8.33;;;;;;;;;;6183188;23;20689;-78
2021/10/24 10:04:30;;;;;;;9.60;6.90;;;;;;;;;;6180521;23;20160;-77
2021/10/24 10:06:55;;;;;;;14.00;7.77;;;;;;;;;;6152797;23;20689;-78
2021/10/24 10:09:20;;;;;;;9.50;7.27;;;;;;;;;;6182682;23;20187;-78
2021/10/24 10:11:49;;;;;;;9.13;7.57;;;;;;;;;;6183830;23;20180;-78
2021/10/24 10:14:26;;;;;;;17.03;8.03;;;;;;;;;;6182646;23;20145;-78
2021/10/24 10:16:53;;;;;;;8.90;7.63;;;;;;;;;;6182466;23;20372;-77
2021/10/24 10:19:27;;;;;;;9.60;7.23;;;;;;;;;;6183377;23;20462;-78
2021/10/24 10:21:52;;;;;;;11.57;6.80;;;;;;;;;;6183649;23;20403;-79
2021/10/24 10:24:36;;;;;;;11.30;6.47;;;;;;;;;;6182835;23;20678;-78
2021/10/24 10:27:20;;;;;;;8.00;6.20;;;;;;;;;;6152709;23;20199;-79
2021/10/24 10:29:52;;;;;;;9.70;6.87;;;;;;;;;;6182512;23;20388;-77
2021/10/24 10:32:18;;;;;;;8.60;6.70;;;;;;;;;;6157081;23;20414;-77
2021/10/24 10:35:03;;;;;;;10.50;6.00;;;;;;;;;;6182807;23;20368;-79
2021/10/24 10:37:47;;;;;;;11.03;6.50;;;;;;;;;;6153279;23;20388;-79
2021/10/24 10:40:13;;;;;;;7.03;5.73;;;;;;;;;;6183640;23;20360;-80
2021/10/24 10:42:42;;;;;;;6.50;5.63;;;;;;;;;;6183919;23;20408;-82
2021/10/24 10:45:16;;;;;;;9.20;5.90;;;;;;;;;;6183024;23;20369;-81
2021/10/24 10:48:07;;;;;;;11.50;5.93;;;;;;;;;;6183366;23;20475;-81
2021/10/24 10:50:39;;;;;;;7.80;5.90;;;;;;;;;;6159901;23;20383;-79
2021/10/24 10:53:06;;;;;;;7.00;5.47;;;;;;;;;;6184383;23;20874;-84
2021/10/24 10:55:50;;;;;;;9.00;5.37;;;;;;;;;;6185204;23;20459;-80
2021/10/24 10:58:33;;;;;;;6.87;5.30;;;;;;;;;;6181875;23;20387;-83
2021/10/24 11:00:59;;;;;;;7.50;5.60;;;;;;;;;;6183558;23;20372;-82
2021/10/24 11:03:40;;;;;;;6.50;5.50;;;;;;;;;;6183465;23;20450;-82
2021/10/24 11:06:08;;;;;;;7.73;5.43;;;;;;;;;;6183566;23;20844;-83
2021/10/24 11:08:48;;;;;;;12.53;5.70;;;;;;;;;;6184060;23;20387;-82
2021/10/24 11:11:13;;;;;;;13.87;6.83;;;;;;;;;;6184480;23;20363;-82
2021/10/24 11:13:38;;;;;;;7.17;6.40;;;;;;;;;;6184282;23;20378;-81
2021/10/24 11:16:22;;;;;;;11.00;6.40;;;;;;;;;;6184062;23;20144;-83
2021/10/24 11:18:47;;;;;;;11.10;9.07;;;;;;;;;;6181076;23;20219;-83
2021/10/24 11:21:24;;;;;;;7.70;4.83;;;;;;;;;;6185426;23;20407;-81
2021/10/24 11:23:53;;;;;;;6.43;4.47;;;;;;;;;;6159426;23;20482;-81
2021/10/24 11:26:19;;;;;;;7.77;5.10;;;;;;;;;;6186423;23;20447;-80
2021/10/24 11:28:45;;;;;;;9.40;6.13;;;;;;;;;;6181612;23;20481;-79
2021/10/24 11:31:11;;;;;;;7.53;5.27;;;;;;;;;;6186282;23;20209;-81
2021/10/24 11:34:04;;;;;;;9.27;5.63;;;;;;;;;;6183756;23;20372;-81
2021/10/24 11:36:30;;;;;;;5.93;4.87;;;;;;;;;;6183297;23;20152;-82
2021/10/24 11:38:57;;;;;;;5.37;3.90;;;;;;;;;;6184479;23;20765;-81
2021/10/24 11:41:22;;;;;;;6.27;4.70;;;;;;;;;;6183806;23;20513;-80
2021/10/24 11:43:50;;;;;;;7.80;4.70;;;;;;;;;;6184028;23;20815;-80
2021/10/24 11:46:15;;;;;;;6.13;4.50;;;;;;;;;;6183204;23;20211;-79
2021/10/24 11:48:41;;;;;;;6.37;4.37;;;;;;;;;;6183569;23;20762;-79
2021/10/24 11:51:10;;;;;;;5.90;3.53;;;;;;;;;;6182348;23;20536;-77
2021/10/24 11:53:41;;;;;;;7.97;3.93;;;;;;;;;;6181981;23;20140;-79
2021/10/24 11:56:08;;;;;;;6.60;3.43;;;;;;;;;;6183523;23;20856;-81
2021/10/24 12:01:04;;;;;;;8.30;4.20;;;;;;;;;;6183214;23;20510;-79
2021/10/24 12:03:30;;;;;;;5.03;3.47;;;;;;;;;;6178835;23;20370;-80
2021/10/24 12:05:55;;;;;;;6.80;3.60;;;;;;;;;;6181189;23;20739;-80
2021/10/24 12:08:40;;;;;;;7.30;4.20;;;;;;;;;;6179806;23;20160;-80
2021/10/24 12:11:07;;;;;;;5.30;4.30;;;;;;;;;;6180757;23;20144;-79
2021/10/24 12:13:33;;;;;;;5.73;4.03;;;;;;;;;;6180998;23;21029;-80
2021/10/24 12:15:59;;;;;;;6.70;4.20;;;;;;;;;;6178883;23;20368;-79
2021/10/24 12:18:28;;;;;;;6.60;4.20;;;;;;;;;;6177803;23;20384;-79
2021/10/24 12:21:00;;;;;;;7.90;3.73;;;;;;;;;;6179302;23;20216;-80
2021/10/24 12:23:27;;;;;;;5.53;4.20;;;;;;;;;;6181497;23;20725;-80
2021/10/24 12:25:54;;;;;;;3.70;3.20;;;;;;;;;;6178786;23;20368;-80
2021/10/24 12:28:38;;;;;;;3.00;2.70;;;;;;;;;;6178230;23;20876;-79
2021/10/24 12:31:05;;;;;;;5.67;2.77;;;;;;;;;;6181189;23;20875;-80
2021/10/24 12:33:31;;;;;;;4.50;2.47;;;;;;;;;;6184240;23;20746;-80
2021/10/24 12:36:02;;;;;;;4.93;3.07;;;;;;;;;;6184969;23;20360;-81
2021/10/24 12:38:47;;;;;;;4.77;2.87;;;;;;;;;;6184786;23;20407;-81
2021/10/24 12:41:12;;;;;;;4.93;3.00;;;;;;;;;;6184433;23;20371;-81
2021/10/24 12:43:50;;;;;;;3.80;2.70;;;;;;;;;;6184701;23;20367;-81
2021/10/24 12:46:25;;;;;;;5.60;3.10;;;;;;;;;;6184725;23;20144;-81
2021/10/24 12:48:50;;;;;;;5.00;2.67;;;;;;;;;;6185017;23;20470;-81
2021/10/24 12:51:18;;;;;;;6.73;2.77;;;;;;;;;;6183887;23;20399;-80
2021/10/24 12:53:44;;;;;;;6.40;2.70;;;;;;;;;;6184646;23;20149;-81
2021/10/24 12:56:09;;;;;;;5.30;2.93;;;;;;;;;;6184659;23;20861;-78
2021/10/24 12:58:35;;;;;;;5.33;3.30;;;;;;;;;;6158362;23;20646;-77
2021/10/24 13:01:00;;;;;;;6.20;3.30;;;;;;;;;;6183037;23;20154;-78
2021/10/24 13:03:25;;;;;;;4.50;2.80;;;;;;;;;;6183860;23;20145;-77
2021/10/24 13:05:51;;;;;;;6.00;2.37;;;;;;;;;;6184449;23;20144;-76
2021/10/24 13:08:17;;;;;;;7.10;2.97;;;;;;;;;;6184437;23;20160;-81
2021/10/24 13:10:42;;;;;;;7.60;2.60;;;;;;;;;;6184530;23;20471;-80
2021/10/24 13:13:08;;;;;;;4.13;2.63;;;;;;;;;;6158121;23;20395;-81
2021/10/24 13:15:33;;;;;;;4.13;2.50;;;;;;;;;;6184398;23;20148;-77
2021/10/24 13:17:59;;;;;;;3.90;2.10;;;;;;;;;;6184615;23;20175;-77
2021/10/24 13:20:24;;;;;;;4.90;2.60;;;;;;;;;;6182484;23;20152;-78
2021/10/24 13:23:03;;;;;;;4.00;2.30;;;;;;;;;;6183770;23;20172;-77
2021/10/24 13:25:28;;;;;;;4.10;2.30;;;;;;;;;;6184357;23;20128;-77
2021/10/24 13:27:55;;;;;;;2.77;2.13;;;;;;;;;;6184111;23;20380;-78
2021/10/24 13:30:21;;;;;;;4.23;2.90;;;;;;;;;;6184387;23;20141;-78
2021/10/24 13:32:49;;;;;;;5.57;2.50;;;;;;;;;;6183821;23;20445;-79
2021/10/24 13:35:15;;;;;;;3.00;2.37;;;;;;;;;;6184120;23;20694;-77
2021/10/24 13:37:40;;;;;;;4.00;2.40;;;;;;;;;;6184145;23;20414;-78
2021/10/24 13:40:06;;;;;;;5.30;2.53;;;;;;;;;;6182961;23;20697;-78
2021/10/24 13:42:31;;;;;;;2.10;1.93;;;;;;;;;;6183842;23;20243;-78
2021/10/24 13:44:57;;;;;;;7.40;3.00;;;;;;;;;;6184199;23;20583;-78
2021/10/24 13:47:22;;;;;;;3.73;2.63;;;;;;;;;;6184081;23;20572;-77
2021/10/24 13:49:47;;;;;;;6.20;3.33;;;;;;;;;;6184263;23;20145;-79
2021/10/24 13:52:13;;;;;;;2.23;2.03;;;;;;;;;;6184385;23;20253;-79
2021/10/24 13:54:38;;;;;;;5.57;2.80;;;;;;;;;;6184038;23;20203;-79
2021/10/24 13:57:03;;;;;;;6.10;3.20;;;;;;;;;;6184602;23;20223;-80
2021/10/24 13:59:28;;;;;;;3.13;2.57;;;;;;;;;;6183806;23;20169;-80
2021/10/24 14:01:54;;;;;;;6.83;2.60;;;;;;;;;;6183935;23;20666;-80
2021/10/24 14:04:19;;;;;;;4.27;3.10;;;;;;;;;;6184164;23;20140;-80
2021/10/24 14:06:44;;;;;;;4.43;2.80;;;;;;;;;;6184018;23;20145;-79
2021/10/24 14:09:09;;;;;;;7.07;3.03;;;;;;;;;;6183780;23;20238;-79
2021/10/24 14:11:35;;;;;;;5.73;2.80;;;;;;;;;;6184209;23;20492;-80
2021/10/24 14:14:00;;;;;;;6.73;2.60;;;;;;;;;;6183752;23;20145;-80
2021/10/24 14:16:26;;;;;;;6.43;2.80;;;;;;;;;;6184041;23;20153;-80
2021/10/24 14:18:51;;;;;;;4.93;2.77;;;;;;;;;;6183324;23;20172;-80
2021/10/24 14:21:18;;;;;;;4.23;2.70;;;;;;;;;;6183382;23;20173;-81
2021/10/24 14:23:44;;;;;;;4.23;2.87;;;;;;;;;;6183805;23;20230;-80
2021/10/24 14:26:10;;;;;;;3.87;2.70;;;;;;;;;;6184181;23;20368;-78
2021/10/24 14:28:36;;;;;;;6.53;3.30;;;;;;;;;;6183422;23;20619;-78
2021/10/24 14:31:01;;;;;;;4.80;2.83;;;;;;;;;;6183900;23;20436;-79
2021/10/24 14:33:26;;;;;;;5.80;3.10;;;;;;;;;;6183648;23;20155;-79
2021/10/24 14:35:52;;;;;;;3.27;2.63;;;;;;;;;;6184059;23;20141;-79